CYDQ

Details ICAO CYDQ (YDQ)
Name DAWSON CREEK
Region Canada
Timezone America/Dawson_Creek (UTC-7.0)
Plans Departing 5
Arriving 5
Stats Elevation 2,148 ft / 655 m (AMSL)
Location 55.741667° -120.181525°
Runways 1
Magnetic Variation 17.291° E
Sunrise 2017-12-17 16:27:41 UTC / 2017-12-17 09:27:41 Local
Sunset 2017-12-17 23:29:04 UTC / 2017-12-17 16:29:04 Local
Advertisement - Login to hide

Runways

ID Width Length Bearing (true) Bearing (mag) Surface Threshold Offset Overrun Length
06 150 ft / 46 m 4,982 ft / 1,519 m 85.32° 68.03° Asphalt 0 ft / 0 m 0 ft / 0 m
24 150 ft / 46 m 4,982 ft / 1,519 m 265.34° 248.05° Asphalt 0 ft / 0 m 0 ft / 0 m

Map

Weather


0- 5 10 15 20 25 30 35+ Temperature / ° C

Clouds and Precipitation
Forecast for 2017-12-17 18:00 UTC. Updated 35 minutes ago

Ground ~20,000 ft ~40,000 ft Winds

METAR

CYDQ 171700Z AUTO 26018G30KT 9SM SCT130 03/M05 A2946 RMK SLP003

TAF

TAF TAF CYDQ 171238Z 1713/1801 24017G27KT P6SM SKC RMK FCST BASED ON AUTO OBS. NXT FCST BY 171900Z

Frequencies

Tower 122.20 MHz MF PEACE RIVER RDO
Warning: Do not use this data for real-world aviation or navigation. No guarantee of current accuracy is given.